createdAt,value
2023-05-01T03:36:22.018Z,1
2023-05-01T03:37:22.014Z,1
2023-05-01T03:38:21.998Z,1
2023-05-01T03:39:21.990Z,1
2023-05-01T03:40:21.998Z,1
2023-05-01T03:41:21.974Z,1
2023-05-01T03:42:21.963Z,1
2023-05-01T03:43:21.955Z,1
2023-05-01T03:44:21.937Z,1
2023-05-01T03:45:21.928Z,16.
2023-05-01T03:46:21.973Z,16.
2023-05-01T03:47:21.942Z,15.
2023-05-01T03:48:21.924Z,16.
2023-05-01T03:49:21.885Z,1
2023-05-01T03:50:21.987Z,1
2023-05-01T03:52:21.858Z,1
2023-05-01T03:53:21.845Z,1
2023-05-01T03:54:21.857Z,1
2023-05-01T03:56:21.819Z,17.
2023-05-01T03:57:21.809Z,17.
2023-05-01T03:58:21.794Z,17.
2023-05-01T03:59:21.784Z,1
2023-05-01T04:00:21.778Z,17.
2023-05-01T04:01:21.765Z,17.
2023-05-01T04:02:21.959Z,17.
2023-05-01T04:03:21.824Z,18.
2023-05-01T04:04:21.801Z,1
2023-05-01T04:05:21.720Z,18.
2023-05-01T04:07:21.698Z,1
2023-05-01T04:08:21.688Z,1
2023-05-01T04:09:21.679Z,17.
2023-05-01T04:10:21.667Z,18.
2023-05-01T04:12:21.646Z,18.
2023-05-01T04:13:21.637Z,18.
2023-05-01T04:14:21.626Z,19.
2023-05-01T04:15:21.614Z,19.
2023-05-01T04:16:21.626Z,20.
2023-05-01T04:17:21.593Z,21.
2023-05-01T04:18:21.864Z,21.
2023-05-01T04:19:21.577Z,2
2023-05-01T04:20:21.607Z,2
2023-05-01T04:21:21.561Z,21.
2023-05-01T04:23:22.539Z,2
2023-05-01T04:24:21.522Z,23.
2023-05-01T04:25:21.522Z,23.
2023-05-01T04:26:21.502Z,2
2023-05-01T04:27:21.491Z,2
2023-05-01T04:28:21.487Z,25.
2023-05-01T04:29:21.472Z,26.
2023-05-01T04:30:21.457Z,2
2023-05-01T04:31:21.486Z,27.
2023-05-01T04:32:21.483Z,25.
2023-05-01T04:33:21.428Z,24.
2023-05-01T04:34:21.424Z,2
2023-05-01T04:36:21.425Z,26.
2023-05-01T04:37:21.380Z,2
2023-05-01T04:38:21.373Z,34.
2023-05-01T04:39:21.368Z,30.
2023-05-01T04:40:21.356Z,2
2023-05-01T04:41:21.341Z,24.
2023-05-01T04:42:21.337Z,26.
2023-05-01T04:43:21.316Z,29.
2023-05-01T04:44:21.306Z,2
2023-05-01T04:45:21.301Z,26.
2023-05-01T04:46:21.350Z,2
2023-05-01T04:47:21.281Z,36.
2023-05-01T04:48:21.316Z,3
2023-05-01T04:49:21.257Z,50.
2023-05-01T04:50:21.294Z,33.
2023-05-01T04:51:21.230Z,2
2023-05-01T04:54:21.202Z,20.
2023-05-01T04:55:21.203Z,20.20
2023-05-01T04:58:21.158Z,20.79
2023-05-01T04:59:21.146Z,21.70
2023-05-01T05:00:21.144Z,21.39
2023-05-01T05:01:21.144Z,22.39
2023-05-01T05:02:21.120Z,22.79
2023-05-01T05:04:21.098Z,36.20
2023-05-01T05:05:21.090Z,35.00
2023-05-01T05:07:21.077Z,28.10
2023-05-01T05:08:21.159Z,22.70
2023-05-01T05:09:21.052Z,20.70
2023-05-01T05:11:21.028Z,22.00
2023-05-01T05:13:21.010Z,21.00
2023-05-01T05:14:21.002Z,21.
2023-05-01T05:15:21.015Z,21.70
2023-05-01T05:16:21.011Z,22.
2023-05-01T05:18:20.992Z,24.39
2023-05-01T05:20:20.940Z,27.39
2023-05-01T05:29:20.849Z,21.70
2023-05-01T05:31:20.916Z,25.
2023-05-01T05:32:20.899Z,29.29
2023-05-01T05:36:20.772Z,51.70
2023-05-01T05:37:20.767Z,49.40
2023-05-01T05:39:20.740Z,49.59
2023-05-01T05:41:20.720Z,55.
2023-05-01T05:42:20.728Z,57.79
2023-05-01T05:44:20.686Z,74.
2023-05-01T05:48:20.681Z,54.00
2023-05-01T05:52:20.610Z,38.29
2023-05-01T05:54:20.586Z,43.29
2023-05-01T05:55:20.581Z,40.29
2023-05-01T05:56:20.609Z,27.60
2023-05-01T05:57:20.554Z,28.50
2023-05-01T05:58:20.547Z,27.
2023-05-01T05:59:20.538Z,28.20
2023-05-01T06:00:20.537Z,28.00
2023-05-01T06:02:20.592Z,27.
2023-05-01T06:08:20.453Z,32.
2023-05-01T06:10:20.418Z,24.00
2023-05-01T06:11:20.414Z,23.
2023-05-01T06:12:20.428Z,23.39
2023-05-01T06:13:20.398Z,22.79
2023-05-01T06:15:20.377Z,23.39
2023-05-01T06:16:20.381Z,54.50
2023-05-01T06:17:20.352Z,25.10
2023-05-01T06:19:20.339Z,23.10
2023-05-01T06:20:20.321Z,23.70
2023-05-01T06:21:20.313Z,24.50
2023-05-01T06:25:20.267Z,24.00
2023-05-01T06:28:20.458Z,34.20
2023-05-01T06:33:20.444Z,31.39
2023-05-01T06:34:20.174Z,23.
2023-05-01T06:35:20.164Z,24.
2023-05-01T06:36:20.155Z,26.00
2023-05-01T06:37:20.145Z,41.50
2023-05-01T06:39:20.129Z,35.40
2023-05-01T06:40:20.112Z,51.20
2023-05-01T06:41:20.100Z,46.50
2023-05-01T06:42:20.092Z,51.40
2023-05-01T06:43:20.082Z,49.59
2023-05-01T06:44:20.230Z,44.
2023-05-01T06:46:20.074Z,44.
2023-05-01T06:48:20.029Z,21.00
2023-05-01T06:49:20.048Z,21.20
2023-05-01T06:51:20.001Z,20.10
2023-05-01T06:52:19.989Z,19.00
2023-05-01T06:55:19.971Z,18.89
2023-05-01T06:56:19.949Z,22.39
2023-05-01T06:57:19.937Z,31.
2023-05-01T06:58:23.937Z,39.59
2023-05-01T06:59:19.913Z,35.09
2023-05-01T07:00:19.930Z,50.
2023-05-01T07:01:19.918Z,21.
2023-05-01T07:02:20.013Z,22.79
2023-05-01T07:09:19.812Z,17.20
2023-05-01T07:11:19.789Z,16.39
2023-05-01T07:13:19.773Z,25.79
2023-05-01T07:15:19.854Z,15.89
2023-05-01T07:16:19.821Z,16.79
2023-05-01T07:17:19.768Z,18.10
2023-05-01T07:19:19.716Z,19.
2023-05-01T07:21:19.696Z,15.
2023-05-01T07:22:19.687Z,17.39
2023-05-01T07:23:19.674Z,15.50
2023-05-01T07:24:19.661Z,18.
2023-05-01T07:26:19.657Z,17.70
2023-05-01T07:28:19.628Z,14.19
2023-05-01T07:29:19.621Z,15.
2023-05-01T07:30:19.605Z,19.00
2023-05-01T07:31:19.656Z,16.60
2023-05-01T07:32:19.780Z,16.00
2023-05-01T07:34:19.641Z,12.60
2023-05-01T07:36:19.540Z,11.
2023-05-01T07:37:19.532Z,12.
2023-05-01T07:38:19.553Z,12.00
2023-05-01T07:40:19.500Z,9.30
2023-05-01T07:41:19.491Z,7.50
2023-05-01T07:43:19.475Z,6.
2023-05-01T07:45:19.447Z,5.19
2023-05-01T07:46:19.450Z,7.69
2023-05-01T07:48:19.440Z,6.09
2023-05-01T07:50:19.394Z,5.80
2023-05-01T07:51:19.386Z,5.
2023-05-01T07:55:19.351Z,4.80
2023-05-01T07:56:19.334Z,4.
2023-05-01T07:58:19.324Z,4.
2023-05-01T08:02:19.377Z,4.
2023-05-01T08:03:19.618Z,5.00
2023-05-01T08:04:19.350Z,4.
2023-05-01T08:05:19.240Z,5.09
2023-05-01T08:08:19.221Z,5.00
2023-05-01T08:09:19.203Z,4.69
2023-05-01T08:10:19.206Z,4.69
2023-05-01T08:12:19.170Z,4.69
2023-05-01T08:14:19.152Z,3.
2023-05-01T08:15:19.144Z,3.70
2023-05-01T08:16:21.183Z,4.
2023-05-01T08:17:19.150Z,3.79
2023-05-01T08:23:19.063Z,4.00
2023-05-01T08:25:19.040Z,3.
2023-05-01T08:27:19.024Z,3.50
2023-05-01T08:28:19.011Z,3.
2023-05-01T08:29:19.000Z,3.20
2023-05-01T08:30:18.994Z,3.50
2023-05-01T08:31:19.010Z,3.50
2023-05-01T08:34:18.954Z,3.
2023-05-01T08:35:18.935Z,3.
2023-05-01T08:39:18.908Z,3.59
2023-05-01T08:40:18.893Z,2.79
2023-05-01T08:41:18.887Z,2.79
2023-05-01T08:42:18.870Z,3.00
2023-05-01T08:43:18.862Z,2.70
2023-05-01T08:44:18.848Z,2.70
2023-05-01T08:46:18.868Z,2.79
2023-05-01T08:47:18.825Z,2.79
2023-05-01T08:48:18.862Z,2.79
2023-05-01T08:49:18.838Z,2.
2023-05-01T08:50:18.802Z,3.00
2023-05-01T08:51:20.060Z,3.09
2023-05-01T08:52:18.815Z,3.00
2023-05-01T08:53:18.755Z,2.90
2023-05-01T08:54:18.745Z,3.00
2023-05-01T08:55:18.733Z,3.29
2023-05-01T08:56:18.722Z,3.09
2023-05-01T08:57:18.717Z,3.09
2023-05-01T08:58:18.705Z,2.79
2023-05-01T08:59:18.691Z,3.00
2023-05-01T09:00:18.682Z,3.20
2023-05-01T09:02:18.658Z,2.70
2023-05-01T09:03:18.824Z,3.20
2023-05-01T09:05:18.633Z,3.40
2023-05-01T09:06:18.698Z,3.09
2023-05-01T09:07:18.616Z,3.40
2023-05-01T09:08:18.631Z,3.29
2023-05-01T09:09:18.595Z,3.09
2023-05-01T09:10:18.596Z,3.40
2023-05-01T09:11:18.569Z,3.50
2023-05-01T09:12:18.560Z,3.29
2023-05-01T09:13:18.555Z,3.50
2023-05-01T09:14:18.542Z,3.59
2023-05-01T09:15:18.530Z,3.59
2023-05-01T09:16:18.557Z,3.59
2023-05-01T09:17:18.659Z,4.00
2023-05-01T09:18:18.544Z,3.79
2023-05-01T09:19:18.488Z,3.70
2023-05-01T09:20:18.486Z,3.50
2023-05-01T09:21:18.472Z,4.00
2023-05-01T09:22:18.466Z,3.40
2023-05-01T09:25:18.429Z,3.
2023-05-01T09:26:18.417Z,3.50
2023-05-01T09:27:18.410Z,3.59
2023-05-01T09:28:18.405Z,3.29
2023-05-01T09:29:18.398Z,3.40
2023-05-01T09:30:18.381Z,3.59
2023-05-01T09:31:18.427Z,3.70
2023-05-01T09:32:18.425Z,3.79
2023-05-01T09:33:18.448Z,3.79
2023-05-01T09:34:18.344Z,3.59
2023-05-01T09:36:18.334Z,3.
2023-05-01T09:38:18.295Z,4.00
2023-05-01T09:39:18.287Z,3.70
2023-05-01T09:40:18.302Z,3.79
2023-05-01T09:41:18.263Z,3.70
2023-05-01T09:42:18.258Z,3.70
2023-05-01T09:43:18.271Z,3.40
2023-05-01T09:44:18.237Z,3.59
2023-05-01T09:45:18.234Z,3.59
2023-05-01T09:46:18.313Z,3.50
2023-05-01T09:48:18.194Z,3.29
2023-05-01T09:49:18.185Z,3.40
2023-05-01T09:50:18.247Z,3.29
2023-05-01T09:51:18.165Z,3.50
2023-05-01T09:52:18.182Z,3.09
2023-05-01T09:53:18.150Z,2.90
2023-05-01T09:54:18.133Z,2.
2023-05-01T09:55:18.128Z,3.20
2023-05-01T09:56:18.248Z,2.90
2023-05-01T09:57:18.100Z,3.29
2023-05-01T09:58:18.105Z,3.40
2023-05-01T09:59:18.101Z,3.59
2023-05-01T10:00:18.115Z,3.40
2023-05-01T10:02:18.166Z,3.40
2023-05-01T10:03:18.091Z,3.40
2023-05-01T10:04:18.037Z,3.29
2023-05-01T10:05:18.022Z,3.29
2023-05-01T10:06:18.091Z,3.59
2023-05-01T10:09:17.982Z,3.40
2023-05-01T10:10:18.034Z,3.40
2023-05-01T10:11:17.968Z,3.29
2023-05-01T10:13:17.937Z,3.40
2023-05-01T10:14:17.935Z,3.
2023-05-01T10:16:17.940Z,3.50
